sensor_id;sensor_type;location;lat;lon;timestamp;P1;durP1;ratioP1;P2;durP2;ratioP2
43048;SDS011;28673;44.412;11.918;2023-03-24T00:01:18;8.55;;;5.20;;
43048;SDS011;28673;44.412;11.918;2023-03-24T00:03:44;9.52;;;5.25;;
43048;SDS011;28673;44.412;11.918;2023-03-24T00:06:12;8.82;;;5.75;;
43048;SDS011;28673;44.412;11.918;2023-03-24T00:08:39;9.68;;;5.47;;
43048;SDS011;28673;44.412;11.918;2023-03-24T00:11:08;5.38;;;4.82;;
43048;SDS011;28673;44.412;11.918;2023-03-24T00:13:36;6.82;;;4.75;;
43048;SDS011;28673;44.412;11.918;2023-03-24T00:16:12;6.85;;;4.97;;
43048;SDS011;28673;44.412;11.918;2023-03-24T00:18:41;8.05;;;4.60;;
43048;SDS011;28673;44.412;11.918;2023-03-24T00:21:07;6.88;;;4.72;;
43048;SDS011;28673;44.412;11.918;2023-03-24T00:23:35;7.57;;;4.32;;
43048;SDS011;28673;44.412;11.918;2023-03-24T00:26:06;6.78;;;4.65;;
43048;SDS011;28673;44.412;11.918;2023-03-24T00:28:40;7.32;;;4.28;;
43048;SDS011;28673;44.412;11.918;2023-03-24T00:31:07;7.63;;;4.32;;
43048;SDS011;28673;44.412;11.918;2023-03-24T00:33:34;6.13;;;4.03;;
43048;SDS011;28673;44.412;11.918;2023-03-24T00:36:02;4.90;;;3.67;;
43048;SDS011;28673;44.412;11.918;2023-03-24T00:38:30;6.53;;;4.15;;
43048;SDS011;28673;44.412;11.918;2023-03-24T00:40:59;6.65;;;3.83;;
43048;SDS011;28673;44.412;11.918;2023-03-24T00:43:27;3.65;;;3.25;;
43048;SDS011;28673;44.412;11.918;2023-03-24T00:46:00;5.03;;;3.72;;
43048;SDS011;28673;44.412;11.918;2023-03-24T00:48:28;5.95;;;3.42;;
43048;SDS011;28673;44.412;11.918;2023-03-24T00:50:54;6.60;;;3.90;;
43048;SDS011;28673;44.412;11.918;2023-03-24T00:53:21;5.40;;;3.33;;
43048;SDS011;28673;44.412;11.918;2023-03-24T00:55:50;3.70;;;3.00;;
43048;SDS011;28673;44.412;11.918;2023-03-24T00:58:17;4.32;;;3.50;;
43048;SDS011;28673;44.412;11.918;2023-03-24T01:00:47;4.05;;;3.15;;
43048;SDS011;28673;44.412;11.918;2023-03-24T01:03:15;8.25;;;4.03;;
43048;SDS011;28673;44.412;11.918;2023-03-24T01:05:42;7.43;;;3.55;;
43048;SDS011;28673;44.412;11.918;2023-03-24T01:08:13;7.33;;;3.83;;
43048;SDS011;28673;44.412;11.918;2023-03-24T01:10:45;4.50;;;4.03;;
43048;SDS011;28673;44.412;11.918;2023-03-24T01:13:21;4.05;;;3.30;;
43048;SDS011;28673;44.412;11.918;2023-03-24T01:15:52;6.95;;;3.58;;
43048;SDS011;28673;44.412;11.918;2023-03-24T01:18:19;6.13;;;3.70;;
43048;SDS011;28673;44.412;11.918;2023-03-24T01:20:46;5.20;;;4.07;;
43048;SDS011;28673;44.412;11.918;2023-03-24T01:23:15;10.50;;;3.58;;
43048;SDS011;28673;44.412;11.918;2023-03-24T01:25:44;5.13;;;3.00;;
43048;SDS011;28673;44.412;11.918;2023-03-24T01:28:16;5.80;;;3.72;;
43048;SDS011;28673;44.412;11.918;2023-03-24T01:30:46;7.35;;;3.40;;
43048;SDS011;28673;44.412;11.918;2023-03-24T01:33:12;4.90;;;3.67;;
43048;SDS011;28673;44.412;11.918;2023-03-24T01:35:38;6.25;;;3.42;;
43048;SDS011;28673;44.412;11.918;2023-03-24T01:38:05;7.90;;;3.40;;
43048;SDS011;28673;44.412;11.918;2023-03-24T01:40:33;4.00;;;3.47;;
43048;SDS011;28673;44.412;11.918;2023-03-24T01:43:00;10.38;;;4.25;;
43048;SDS011;28673;44.412;11.918;2023-03-24T01:48:25;7.20;;;5.05;;
43048;SDS011;28673;44.412;11.918;2023-03-24T01:51:16;10.25;;;5.07;;
43048;SDS011;28673;44.412;11.918;2023-03-24T01:56:33;6.20;;;5.05;;
43048;SDS011;28673;44.412;11.918;2023-03-24T01:59:04;8.30;;;5.68;;
43048;SDS011;28673;44.412;11.918;2023-03-24T02:01:54;6.15;;;4.97;;
43048;SDS011;28673;44.412;11.918;2023-03-24T02:04:46;9.50;;;4.38;;
43048;SDS011;28673;44.412;11.918;2023-03-24T02:10:13;6.05;;;4.70;;
43048;SDS011;28673;44.412;11.918;2023-03-24T02:12:41;5.53;;;4.60;;
43048;SDS011;28673;44.412;11.918;2023-03-24T02:15:09;9.27;;;5.13;;
43048;SDS011;28673;44.412;11.918;2023-03-24T02:23:33;6.40;;;4.93;;
43048;SDS011;28673;44.412;11.918;2023-03-24T02:34:45;7.40;;;5.28;;
43048;SDS011;28673;44.412;11.918;2023-03-24T02:45:36;7.75;;;5.47;;
43048;SDS011;28673;44.412;11.918;2023-03-24T02:48:28;7.85;;;5.65;;
43048;SDS011;28673;44.412;11.918;2023-03-24T02:51:24;7.65;;;5.78;;
43048;SDS011;28673;44.412;11.918;2023-03-24T03:02:01;11.15;;;6.35;;
43048;SDS011;28673;44.412;11.918;2023-03-24T03:04:45;9.05;;;6.68;;
43048;SDS011;28673;44.412;11.918;2023-03-24T03:07:20;7.13;;;6.13;;
43048;SDS011;28673;44.412;11.918;2023-03-24T03:09:55;8.52;;;7.57;;
43048;SDS011;28673;44.412;11.918;2023-03-24T03:12:25;9.07;;;6.90;;
43048;SDS011;28673;44.412;11.918;2023-03-24T03:14:56;16.00;;;7.53;;
43048;SDS011;28673;44.412;11.918;2023-03-24T03:17:29;10.18;;;6.10;;
43048;SDS011;28673;44.412;11.918;2023-03-24T03:20:03;10.40;;;7.53;;
43048;SDS011;28673;44.412;11.918;2023-03-24T03:22:41;10.65;;;7.22;;
43048;SDS011;28673;44.412;11.918;2023-03-24T03:25:21;9.98;;;6.88;;
43048;SDS011;28673;44.412;11.918;2023-03-24T03:27:52;7.75;;;6.10;;
43048;SDS011;28673;44.412;11.918;2023-03-24T03:30:27;8.77;;;7.20;;
43048;SDS011;28673;44.412;11.918;2023-03-24T03:33:03;8.38;;;6.78;;
43048;SDS011;28673;44.412;11.918;2023-03-24T03:35:53;8.05;;;6.05;;
43048;SDS011;28673;44.412;11.918;2023-03-24T03:38:37;11.13;;;7.18;;
43048;SDS011;28673;44.412;11.918;2023-03-24T03:41:16;9.02;;;6.45;;
43048;SDS011;28673;44.412;11.918;2023-03-24T03:43:45;7.55;;;6.45;;
43048;SDS011;28673;44.412;11.918;2023-03-24T03:46:13;10.25;;;7.13;;
43048;SDS011;28673;44.412;11.918;2023-03-24T03:48:41;8.02;;;6.20;;
43048;SDS011;28673;44.412;11.918;2023-03-24T03:51:07;9.63;;;7.45;;
43048;SDS011;28673;44.412;11.918;2023-03-24T03:53:39;12.13;;;7.75;;
43048;SDS011;28673;44.412;11.918;2023-03-24T03:56:18;7.40;;;6.63;;
43048;SDS011;28673;44.412;11.918;2023-03-24T03:58:58;13.07;;;7.70;;
43048;SDS011;28673;44.412;11.918;2023-03-24T04:01:25;10.38;;;7.53;;
43048;SDS011;28673;44.412;11.918;2023-03-24T04:07:27;9.18;;;6.82;;
43048;SDS011;28673;44.412;11.918;2023-03-24T04:16:00;7.82;;;7.03;;
43048;SDS011;28673;44.412;11.918;2023-03-24T04:19:13;10.00;;;6.97;;
43048;SDS011;28673;44.412;11.918;2023-03-24T04:22:16;8.85;;;6.82;;
43048;SDS011;28673;44.412;11.918;2023-03-24T04:24:54;14.40;;;7.00;;
43048;SDS011;28673;44.412;11.918;2023-03-24T04:32:57;7.97;;;6.85;;
43048;SDS011;28673;44.412;11.918;2023-03-24T04:35:35;9.15;;;7.38;;
43048;SDS011;28673;44.412;11.918;2023-03-24T04:38:31;9.52;;;7.10;;
43048;SDS011;28673;44.412;11.918;2023-03-24T04:41:27;12.98;;;7.38;;
43048;SDS011;28673;44.412;11.918;2023-03-24T04:44:06;11.65;;;7.15;;
43048;SDS011;28673;44.412;11.918;2023-03-24T04:46:44;11.02;;;6.38;;
43048;SDS011;28673;44.412;11.918;2023-03-24T04:49:15;10.55;;;6.70;;
43048;SDS011;28673;44.412;11.918;2023-03-24T04:51:42;10.82;;;6.93;;
43048;SDS011;28673;44.412;11.918;2023-03-24T04:54:19;13.25;;;7.72;;
43048;SDS011;28673;44.412;11.918;2023-03-24T04:59:27;8.73;;;6.60;;
43048;SDS011;28673;44.412;11.918;2023-03-24T05:01:56;10.85;;;7.75;;
43048;SDS011;28673;44.412;11.918;2023-03-24T05:04:30;9.52;;;7.03;;
43048;SDS011;28673;44.412;11.918;2023-03-24T05:07:21;9.40;;;7.25;;
43048;SDS011;28673;44.412;11.918;2023-03-24T05:09:51;9.73;;;7.20;;
43048;SDS011;28673;44.412;11.918;2023-03-24T05:12:17;13.00;;;7.88;;
43048;SDS011;28673;44.412;11.918;2023-03-24T05:15:01;16.02;;;7.72;;
43048;SDS011;28673;44.412;11.918;2023-03-24T05:17:29;15.55;;;8.63;;
43048;SDS011;28673;44.412;11.918;2023-03-24T05:19:58;12.98;;;10.45;;
43048;SDS011;28673;44.412;11.918;2023-03-24T05:22:24;11.57;;;10.10;;
43048;SDS011;28673;44.412;11.918;2023-03-24T05:24:50;14.65;;;10.48;;
43048;SDS011;28673;44.412;11.918;2023-03-24T05:27:16;18.00;;;10.55;;
43048;SDS011;28673;44.412;11.918;2023-03-24T05:29:42;13.52;;;9.18;;
43048;SDS011;28673;44.412;11.918;2023-03-24T05:32:12;15.75;;;10.15;;
43048;SDS011;28673;44.412;11.918;2023-03-24T05:34:41;12.40;;;9.75;;
43048;SDS011;28673;44.412;11.918;2023-03-24T05:37:11;11.18;;;8.85;;
43048;SDS011;28673;44.412;11.918;2023-03-24T05:39:43;17.77;;;10.07;;
43048;SDS011;28673;44.412;11.918;2023-03-24T05:42:27;14.60;;;9.82;;
43048;SDS011;28673;44.412;11.918;2023-03-24T05:44:53;9.85;;;8.13;;
43048;SDS011;28673;44.412;11.918;2023-03-24T05:47:25;16.75;;;9.02;;
43048;SDS011;28673;44.412;11.918;2023-03-24T05:49:51;11.32;;;8.80;;
43048;SDS011;28673;44.412;11.918;2023-03-24T05:52:18;10.57;;;8.85;;
43048;SDS011;28673;44.412;11.918;2023-03-24T05:54:47;10.82;;;8.23;;
43048;SDS011;28673;44.412;11.918;2023-03-24T05:57:22;18.95;;;7.97;;
43048;SDS011;28673;44.412;11.918;2023-03-24T06:00:06;12.35;;;8.30;;
43048;SDS011;28673;44.412;11.918;2023-03-24T06:02:52;12.80;;;7.80;;
43048;SDS011;28673;44.412;11.918;2023-03-24T06:05:45;11.80;;;7.82;;
43048;SDS011;28673;44.412;11.918;2023-03-24T06:08:14;8.80;;;7.90;;
43048;SDS011;28673;44.412;11.918;2023-03-24T06:10:41;9.15;;;7.18;;
43048;SDS011;28673;44.412;11.918;2023-03-24T06:13:08;9.00;;;7.53;;
43048;SDS011;28673;44.412;11.918;2023-03-24T06:15:35;13.98;;;8.48;;
43048;SDS011;28673;44.412;11.918;2023-03-24T06:18:22;10.48;;;8.07;;
43048;SDS011;28673;44.412;11.918;2023-03-24T06:20:48;15.63;;;8.93;;
43048;SDS011;28673;44.412;11.918;2023-03-24T06:23:26;9.98;;;7.80;;
43048;SDS011;28673;44.412;11.918;2023-03-24T06:26:18;11.50;;;7.82;;
43048;SDS011;28673;44.412;11.918;2023-03-24T06:28:51;18.80;;;10.93;;
43048;SDS011;28673;44.412;11.918;2023-03-24T06:31:19;16.58;;;8.15;;
43048;SDS011;28673;44.412;11.918;2023-03-24T06:33:51;13.73;;;8.10;;
43048;SDS011;28673;44.412;11.918;2023-03-24T06:36:18;10.43;;;7.72;;
43048;SDS011;28673;44.412;11.918;2023-03-24T06:38:45;8.65;;;7.60;;
43048;SDS011;28673;44.412;11.918;2023-03-24T06:41:15;11.65;;;8.20;;
43048;SDS011;28673;44.412;11.918;2023-03-24T06:43:41;12.68;;;9.20;;
43048;SDS011;28673;44.412;11.918;2023-03-24T06:46:07;15.52;;;9.48;;
43048;SDS011;28673;44.412;11.918;2023-03-24T06:48:37;11.50;;;8.95;;
43048;SDS011;28673;44.412;11.918;2023-03-24T06:51:06;14.75;;;9.52;;
43048;SDS011;28673;44.412;11.918;2023-03-24T06:53:33;9.50;;;8.45;;
43048;SDS011;28673;44.412;11.918;2023-03-24T06:55:59;12.23;;;8.43;;
43048;SDS011;28673;44.412;11.918;2023-03-24T06:58:32;14.15;;;8.70;;
43048;SDS011;28673;44.412;11.918;2023-03-24T07:01:02;9.82;;;8.50;;
43048;SDS011;28673;44.412;11.918;2023-03-24T07:03:34;13.43;;;9.02;;
43048;SDS011;28673;44.412;11.918;2023-03-24T07:06:20;12.23;;;8.10;;
43048;SDS011;28673;44.412;11.918;2023-03-24T07:08:51;17.75;;;8.57;;
43048;SDS011;28673;44.412;11.918;2023-03-24T07:11:19;21.77;;;8.18;;
43048;SDS011;28673;44.412;11.918;2023-03-24T07:13:51;13.07;;;8.52;;
43048;SDS011;28673;44.412;11.918;2023-03-24T07:16:18;12.90;;;7.65;;
43048;SDS011;28673;44.412;11.918;2023-03-24T07:18:49;22.80;;;8.20;;
43048;SDS011;28673;44.412;11.918;2023-03-24T07:21:15;13.18;;;8.20;;
43048;SDS011;28673;44.412;11.918;2023-03-24T07:23:42;11.60;;;9.07;;
43048;SDS011;28673;44.412;11.918;2023-03-24T07:26:13;11.15;;;8.07;;
43048;SDS011;28673;44.412;11.918;2023-03-24T07:28:45;13.35;;;8.75;;
43048;SDS011;28673;44.412;11.918;2023-03-24T07:31:16;40.33;;;9.43;;
43048;SDS011;28673;44.412;11.918;2023-03-24T07:33:44;19.77;;;8.45;;
43048;SDS011;28673;44.412;11.918;2023-03-24T07:36:10;13.82;;;8.55;;
43048;SDS011;28673;44.412;11.918;2023-03-24T07:38:38;11.25;;;8.50;;
43048;SDS011;28673;44.412;11.918;2023-03-24T07:41:09;11.38;;;8.35;;
43048;SDS011;28673;44.412;11.918;2023-03-24T07:43:39;10.25;;;8.18;;
43048;SDS011;28673;44.412;11.918;2023-03-24T07:46:18;17.58;;;7.25;;
43048;SDS011;28673;44.412;11.918;2023-03-24T07:48:45;11.82;;;7.82;;
43048;SDS011;28673;44.412;11.918;2023-03-24T07:51:14;12.23;;;8.13;;
43048;SDS011;28673;44.412;11.918;2023-03-24T07:53:49;9.77;;;8.02;;
43048;SDS011;28673;44.412;11.918;2023-03-24T07:56:30;15.43;;;8.82;;
43048;SDS011;28673;44.412;11.918;2023-03-24T07:58:58;12.73;;;8.65;;
43048;SDS011;28673;44.412;11.918;2023-03-24T08:01:45;12.10;;;8.73;;
43048;SDS011;28673;44.412;11.918;2023-03-24T08:04:15;11.82;;;8.30;;
43048;SDS011;28673;44.412;11.918;2023-03-24T08:06:47;13.00;;;8.80;;
43048;SDS011;28673;44.412;11.918;2023-03-24T08:09:13;10.68;;;7.95;;
43048;SDS011;28673;44.412;11.918;2023-03-24T08:11:40;8.60;;;7.07;;
43048;SDS011;28673;44.412;11.918;2023-03-24T08:14:06;8.85;;;6.55;;
43048;SDS011;28673;44.412;11.918;2023-03-24T08:16:32;12.20;;;7.25;;
43048;SDS011;28673;44.412;11.918;2023-03-24T08:19:00;10.52;;;5.50;;
43048;SDS011;28673;44.412;11.918;2023-03-24T08:21:28;7.67;;;6.33;;
43048;SDS011;28673;44.412;11.918;2023-03-24T08:23:54;8.00;;;5.20;;
43048;SDS011;28673;44.412;11.918;2023-03-24T08:26:21;7.00;;;5.38;;
43048;SDS011;28673;44.412;11.918;2023-03-24T08:28:53;7.53;;;5.20;;
43048;SDS011;28673;44.412;11.918;2023-03-24T08:31:18;6.85;;;5.60;;
43048;SDS011;28673;44.412;11.918;2023-03-24T08:33:44;8.75;;;5.43;;
43048;SDS011;28673;44.412;11.918;2023-03-24T08:36:11;6.30;;;4.88;;
43048;SDS011;28673;44.412;11.918;2023-03-24T08:38:37;7.05;;;5.13;;
43048;SDS011;28673;44.412;11.918;2023-03-24T08:41:04;8.27;;;4.43;;
43048;SDS011;28673;44.412;11.918;2023-03-24T08:43:33;7.80;;;4.13;;
43048;SDS011;28673;44.412;11.918;2023-03-24T08:46:00;5.68;;;4.05;;
43048;SDS011;28673;44.412;11.918;2023-03-24T08:48:27;7.32;;;4.43;;
43048;SDS011;28673;44.412;11.918;2023-03-24T08:50:55;4.25;;;3.75;;
43048;SDS011;28673;44.412;11.918;2023-03-24T08:53:21;8.65;;;4.03;;
43048;SDS011;28673;44.412;11.918;2023-03-24T08:55:47;5.85;;;4.00;;
43048;SDS011;28673;44.412;11.918;2023-03-24T08:58:18;4.88;;;3.85;;
43048;SDS011;28673;44.412;11.918;2023-03-24T09:00:45;8.10;;;4.13;;
43048;SDS011;28673;44.412;11.918;2023-03-24T09:03:14;6.13;;;4.00;;
43048;SDS011;28673;44.412;11.918;2023-03-24T09:05:43;4.13;;;3.70;;
43048;SDS011;28673;44.412;11.918;2023-03-24T09:08:11;5.22;;;3.80;;
43048;SDS011;28673;44.412;11.918;2023-03-24T09:10:42;4.63;;;3.25;;
43048;SDS011;28673;44.412;11.918;2023-03-24T09:13:11;6.90;;;3.75;;
43048;SDS011;28673;44.412;11.918;2023-03-24T09:15:37;7.78;;;3.90;;
43048;SDS011;28673;44.412;11.918;2023-03-24T09:18:03;4.68;;;3.50;;
43048;SDS011;28673;44.412;11.918;2023-03-24T09:20:29;5.00;;;3.70;;
43048;SDS011;28673;44.412;11.918;2023-03-24T09:22:55;5.03;;;3.63;;
43048;SDS011;28673;44.412;11.918;2023-03-24T09:25:21;7.20;;;3.45;;
43048;SDS011;28673;44.412;11.918;2023-03-24T09:27:48;5.90;;;3.50;;
43048;SDS011;28673;44.412;11.918;2023-03-24T09:30:15;5.53;;;3.88;;
43048;SDS011;28673;44.412;11.918;2023-03-24T09:32:42;5.57;;;3.40;;
43048;SDS011;28673;44.412;11.918;2023-03-24T09:35:10;4.07;;;3.20;;
43048;SDS011;28673;44.412;11.918;2023-03-24T09:37:37;3.33;;;2.88;;
43048;SDS011;28673;44.412;11.918;2023-03-24T09:40:03;3.97;;;3.25;;
43048;SDS011;28673;44.412;11.918;2023-03-24T09:42:33;4.13;;;3.35;;
43048;SDS011;28673;44.412;11.918;2023-03-24T09:45:04;4.60;;;3.22;;
43048;SDS011;28673;44.412;11.918;2023-03-24T09:47:37;4.72;;;3.38;;
43048;SDS011;28673;44.412;11.918;2023-03-24T09:50:52;4.05;;;3.10;;
43048;SDS011;28673;44.412;11.918;2023-03-24T09:52:57;4.13;;;3.53;;
43048;SDS011;28673;44.412;11.918;2023-03-24T09:55:29;3.55;;;2.80;;
43048;SDS011;28673;44.412;11.918;2023-03-24T09:57:57;6.82;;;3.40;;
43048;SDS011;28673;44.412;11.918;2023-03-24T10:00:30;9.20;;;2.97;;
43048;SDS011;28673;44.412;11.918;2023-03-24T10:02:58;3.38;;;2.80;;
43048;SDS011;28673;44.412;11.918;2023-03-24T10:05:44;3.60;;;3.13;;
43048;SDS011;28673;44.412;11.918;2023-03-24T10:08:35;3.65;;;3.10;;
43048;SDS011;28673;44.412;11.918;2023-03-24T10:14:15;3.63;;;2.83;;
43048;SDS011;28673;44.412;11.918;2023-03-24T10:17:27;7.70;;;2.50;;
43048;SDS011;28673;44.412;11.918;2023-03-24T10:23:03;5.05;;;2.72;;
43048;SDS011;28673;44.412;11.918;2023-03-24T10:32:18;2.63;;;2.38;;
43048;SDS011;28673;44.412;11.918;2023-03-24T10:34:53;4.22;;;2.83;;
43048;SDS011;28673;44.412;11.918;2023-03-24T10:37:22;6.72;;;2.50;;
43048;SDS011;28673;44.412;11.918;2023-03-24T10:39:49;5.22;;;2.42;;
43048;SDS011;28673;44.412;11.918;2023-03-24T10:42:23;3.50;;;2.47;;
43048;SDS011;28673;44.412;11.918;2023-03-24T10:44:50;2.72;;;1.98;;
43048;SDS011;28673;44.412;11.918;2023-03-24T10:47:24;4.70;;;3.00;;
43048;SDS011;28673;44.412;11.918;2023-03-24T10:52:22;3.35;;;2.60;;
43048;SDS011;28673;44.412;11.918;2023-03-24T10:54:56;4.30;;;2.58;;
43048;SDS011;28673;44.412;11.918;2023-03-24T10:57:30;3.25;;;2.20;;
43048;SDS011;28673;44.412;11.918;2023-03-24T10:59:59;3.08;;;1.55;;
43048;SDS011;28673;44.412;11.918;2023-03-24T11:02:41;5.32;;;1.60;;
43048;SDS011;28673;44.412;11.918;2023-03-24T11:07:48;3.03;;;1.50;;
43048;SDS011;28673;44.412;11.918;2023-03-24T11:10:25;2.90;;;1.60;;
43048;SDS011;28673;44.412;11.918;2023-03-24T11:15:19;6.25;;;2.80;;
43048;SDS011;28673;44.412;11.918;2023-03-24T11:20:57;4.43;;;1.70;;
43048;SDS011;28673;44.412;11.918;2023-03-24T11:28:55;2.95;;;1.88;;
43048;SDS011;28673;44.412;11.918;2023-03-24T11:31:28;5.85;;;1.65;;
43048;SDS011;28673;44.412;11.918;2023-03-24T11:33:59;5.88;;;2.28;;
43048;SDS011;28673;44.412;11.918;2023-03-24T11:39:15;2.22;;;1.40;;
43048;SDS011;28673;44.412;11.918;2023-03-24T11:41:43;1.98;;;1.50;;
43048;SDS011;28673;44.412;11.918;2023-03-24T11:47:15;3.88;;;1.65;;
43048;SDS011;28673;44.412;11.918;2023-03-24T11:52:36;2.10;;;1.30;;
43048;SDS011;28673;44.412;11.918;2023-03-24T12:08:59;2.22;;;1.63;;
43048;SDS011;28673;44.412;11.918;2023-03-24T12:15:19;2.50;;;1.35;;
43048;SDS011;28673;44.412;11.918;2023-03-24T12:17:57;4.00;;;1.50;;
43048;SDS011;28673;44.412;11.918;2023-03-24T12:20:35;2.28;;;1.60;;
43048;SDS011;28673;44.412;11.918;2023-03-24T12:28:38;5.35;;;1.88;;
43048;SDS011;28673;44.412;11.918;2023-03-24T12:36:58;3.35;;;1.60;;
43048;SDS011;28673;44.412;11.918;2023-03-24T12:42:46;3.10;;;1.60;;
43048;SDS011;28673;44.412;11.918;2023-03-24T12:45:42;2.50;;;1.38;;
43048;SDS011;28673;44.412;11.918;2023-03-24T12:51:38;3.88;;;2.22;;
43048;SDS011;28673;44.412;11.918;2023-03-24T12:54:28;3.53;;;2.17;;
43048;SDS011;28673;44.412;11.918;2023-03-24T12:57:10;13.23;;;2.40;;
43048;SDS011;28673;44.412;11.918;2023-03-24T13:00:25;4.70;;;1.98;;
43048;SDS011;28673;44.412;11.918;2023-03-24T13:05:31;4.68;;;2.30;;
43048;SDS011;28673;44.412;11.918;2023-03-24T13:08:04;2.90;;;1.90;;
43048;SDS011;28673;44.412;11.918;2023-03-24T13:10:40;2.03;;;1.80;;
43048;SDS011;28673;44.412;11.918;2023-03-24T13:13:50;4.68;;;1.85;;
43048;SDS011;28673;44.412;11.918;2023-03-24T13:16:00;3.35;;;1.90;;
43048;SDS011;28673;44.412;11.918;2023-03-24T13:18:51;7.95;;;1.73;;
43048;SDS011;28673;44.412;11.918;2023-03-24T13:21:20;2.80;;;1.67;;
43048;SDS011;28673;44.412;11.918;2023-03-24T13:23:54;2.63;;;1.70;;
43048;SDS011;28673;44.412;11.918;2023-03-24T13:30:36;3.97;;;1.75;;
43048;SDS011;28673;44.412;11.918;2023-03-24T13:32:40;7.45;;;3.63;;
43048;SDS011;28673;44.412;11.918;2023-03-24T13:38:14;3.17;;;2.42;;
43048;SDS011;28673;44.412;11.918;2023-03-24T13:40:45;3.45;;;1.70;;
43048;SDS011;28673;44.412;11.918;2023-03-24T13:43:17;3.65;;;2.30;;
43048;SDS011;28673;44.412;11.918;2023-03-24T13:45:49;3.08;;;1.85;;
43048;SDS011;28673;44.412;11.918;2023-03-24T13:51:05;3.50;;;1.88;;
43048;SDS011;28673;44.412;11.918;2023-03-24T13:53:49;4.28;;;1.40;;
43048;SDS011;28673;44.412;11.918;2023-03-24T13:56:30;4.68;;;1.90;;
43048;SDS011;28673;44.412;11.918;2023-03-24T14:01:31;2.60;;;2.10;;
43048;SDS011;28673;44.412;11.918;2023-03-24T14:06:47;2.47;;;1.27;;
43048;SDS011;28673;44.412;11.918;2023-03-24T14:09:25;5.07;;;1.85;;
43048;SDS011;28673;44.412;11.918;2023-03-24T14:14:27;2.03;;;1.35;;
43048;SDS011;28673;44.412;11.918;2023-03-24T14:19:30;1.85;;;1.33;;
43048;SDS011;28673;44.412;11.918;2023-03-24T14:25:00;1.98;;;1.50;;
43048;SDS011;28673;44.412;11.918;2023-03-24T14:33:20;2.65;;;1.33;;
43048;SDS011;28673;44.412;11.918;2023-03-24T14:35:29;2.00;;;1.25;;
43048;SDS011;28673;44.412;11.918;2023-03-24T14:40:40;2.28;;;1.38;;
43048;SDS011;28673;44.412;11.918;2023-03-24T14:43:28;3.67;;;1.40;;
43048;SDS011;28673;44.412;11.918;2023-03-24T14:48:58;1.85;;;1.50;;
43048;SDS011;28673;44.412;11.918;2023-03-24T14:54:36;9.07;;;1.60;;
43048;SDS011;28673;44.412;11.918;2023-03-24T14:57:03;2.90;;;1.40;;
43048;SDS011;28673;44.412;11.918;2023-03-24T15:10:54;1.55;;;1.10;;
43048;SDS011;28673;44.412;11.918;2023-03-24T15:13:33;2.35;;;1.60;;
43048;SDS011;28673;44.412;11.918;2023-03-24T15:16:33;1.85;;;1.23;;
43048;SDS011;28673;44.412;11.918;2023-03-24T15:19:06;6.25;;;4.80;;
43048;SDS011;28673;44.412;11.918;2023-03-24T15:21:38;4.40;;;3.90;;
43048;SDS011;28673;44.412;11.918;2023-03-24T15:26:46;34.38;;;20.55;;
43048;SDS011;28673;44.412;11.918;2023-03-24T15:29:17;12.98;;;7.80;;
43048;SDS011;28673;44.412;11.918;2023-03-24T15:31:43;11.82;;;5.18;;
43048;SDS011;28673;44.412;11.918;2023-03-24T15:34:23;4.70;;;3.20;;
43048;SDS011;28673;44.412;11.918;2023-03-24T15:36:54;7.15;;;3.40;;
43048;SDS011;28673;44.412;11.918;2023-03-24T15:39:24;5.72;;;2.88;;
43048;SDS011;28673;44.412;11.918;2023-03-24T15:41:59;4.43;;;2.58;;
43048;SDS011;28673;44.412;11.918;2023-03-24T15:44:28;6.32;;;2.75;;
43048;SDS011;28673;44.412;11.918;2023-03-24T15:46:58;3.63;;;2.35;;
43048;SDS011;28673;44.412;11.918;2023-03-24T15:49:33;2.50;;;1.70;;
43048;SDS011;28673;44.412;11.918;2023-03-24T15:54:47;3.03;;;1.52;;
43048;SDS011;28673;44.412;11.918;2023-03-24T15:57:17;4.63;;;2.55;;
43048;SDS011;28673;44.412;11.918;2023-03-24T15:59:55;6.03;;;3.40;;
43048;SDS011;28673;44.412;11.918;2023-03-24T16:02:49;8.07;;;5.97;;
43048;SDS011;28673;44.412;11.918;2023-03-24T16:05:27;7.22;;;5.25;;
43048;SDS011;28673;44.412;11.918;2023-03-24T16:07:58;6.50;;;3.83;;
43048;SDS011;28673;44.412;11.918;2023-03-24T16:13:16;4.50;;;3.60;;
43048;SDS011;28673;44.412;11.918;2023-03-24T16:15:45;10.48;;;3.58;;
43048;SDS011;28673;44.412;11.918;2023-03-24T16:18:44;2.72;;;2.50;;
43048;SDS011;28673;44.412;11.918;2023-03-24T16:21:21;3.65;;;2.92;;
43048;SDS011;28673;44.412;11.918;2023-03-24T16:23:49;7.40;;;4.13;;
43048;SDS011;28673;44.412;11.918;2023-03-24T16:26:23;8.15;;;3.17;;
43048;SDS011;28673;44.412;11.918;2023-03-24T16:28:52;6.38;;;3.33;;
43048;SDS011;28673;44.412;11.918;2023-03-24T16:31:29;10.80;;;5.80;;
43048;SDS011;28673;44.412;11.918;2023-03-24T16:33:59;12.50;;;5.95;;
43048;SDS011;28673;44.412;11.918;2023-03-24T16:36:25;16.42;;;9.60;;
43048;SDS011;28673;44.412;11.918;2023-03-24T16:38:52;19.92;;;10.07;;
43048;SDS011;28673;44.412;11.918;2023-03-24T16:41:20;18.55;;;10.68;;
43048;SDS011;28673;44.412;11.918;2023-03-24T16:43:46;16.02;;;9.07;;
43048;SDS011;28673;44.412;11.918;2023-03-24T16:48:51;11.88;;;7.10;;
43048;SDS011;28673;44.412;11.918;2023-03-24T16:51:17;11.77;;;7.03;;
43048;SDS011;28673;44.412;11.918;2023-03-24T16:53:44;11.18;;;7.38;;
43048;SDS011;28673;44.412;11.918;2023-03-24T16:56:14;22.08;;;11.43;;
43048;SDS011;28673;44.412;11.918;2023-03-24T16:58:42;16.90;;;9.50;;
43048;SDS011;28673;44.412;11.918;2023-03-24T17:01:32;16.08;;;7.53;;
43048;SDS011;28673;44.412;11.918;2023-03-24T17:04:07;8.32;;;4.75;;
43048;SDS011;28673;44.412;11.918;2023-03-24T17:06:37;9.60;;;5.15;;
43048;SDS011;28673;44.412;11.918;2023-03-24T17:09:08;7.28;;;4.43;;
43048;SDS011;28673;44.412;11.918;2023-03-24T17:11:35;8.85;;;4.15;;
43048;SDS011;28673;44.412;11.918;2023-03-24T17:14:03;7.55;;;4.88;;
43048;SDS011;28673;44.412;11.918;2023-03-24T17:16:33;10.48;;;7.00;;
43048;SDS011;28673;44.412;11.918;2023-03-24T17:19:06;10.93;;;5.43;;
43048;SDS011;28673;44.412;11.918;2023-03-24T17:21:33;11.80;;;6.13;;
43048;SDS011;28673;44.412;11.918;2023-03-24T17:24:02;9.25;;;5.13;;
43048;SDS011;28673;44.412;11.918;2023-03-24T17:26:30;6.38;;;4.82;;
43048;SDS011;28673;44.412;11.918;2023-03-24T17:28:56;7.35;;;4.55;;
43048;SDS011;28673;44.412;11.918;2023-03-24T17:31:22;6.43;;;3.80;;
43048;SDS011;28673;44.412;11.918;2023-03-24T17:33:48;3.80;;;2.53;;
43048;SDS011;28673;44.412;11.918;2023-03-24T17:36:14;4.35;;;2.95;;
43048;SDS011;28673;44.412;11.918;2023-03-24T17:38:41;9.15;;;3.40;;
43048;SDS011;28673;44.412;11.918;2023-03-24T17:41:12;6.95;;;4.47;;
43048;SDS011;28673;44.412;11.918;2023-03-24T17:43:38;3.88;;;2.92;;
43048;SDS011;28673;44.412;11.918;2023-03-24T17:46:04;7.30;;;2.75;;
43048;SDS011;28673;44.412;11.918;2023-03-24T17:48:30;4.97;;;3.20;;
43048;SDS011;28673;44.412;11.918;2023-03-24T17:50:56;12.60;;;3.67;;
43048;SDS011;28673;44.412;11.918;2023-03-24T17:53:23;8.13;;;4.95;;
43048;SDS011;28673;44.412;11.918;2023-03-24T17:55:53;4.82;;;3.17;;
43048;SDS011;28673;44.412;11.918;2023-03-24T17:58:20;4.43;;;2.42;;
43048;SDS011;28673;44.412;11.918;2023-03-24T18:00:47;4.32;;;2.20;;
43048;SDS011;28673;44.412;11.918;2023-03-24T18:03:13;2.70;;;1.60;;
43048;SDS011;28673;44.412;11.918;2023-03-24T18:05:40;2.83;;;2.05;;
43048;SDS011;28673;44.412;11.918;2023-03-24T18:08:06;3.05;;;1.38;;
43048;SDS011;28673;44.412;11.918;2023-03-24T18:10:32;4.35;;;1.48;;
43048;SDS011;28673;44.412;11.918;2023-03-24T18:13:02;3.25;;;1.48;;